Terminal Aerodrome Forecast
Issued by NWS

Home | Current Version | Previous Version | Text Only | Print | Product List | Glossary On
Versions: 1 2 3 4 5 6 7 8 9 10 11 12 13 14 15 16
000
FTUS42 KJAX 181149
TAFCRG
TAF
KCRG 181149Z 1812/1912 21004KT P6SM SCT030 BKN250
      TEMPO 1812/1813 5SM BR
     FM181500 23006KT P6SM SCT020 BKN035
     FM190100 21003KT 4SM BR BKN010 OVC020
     FM190600 26003KT 1/2SM FG OVC002=

USA.gov is the U.S. government's official web portal to all federal, state and local government web resources and services.